createdAt,value
2023-04-12T00:00:00.397Z,2.9
2023-04-12T00:05:00.583Z,3.6
2023-04-12T00:10:00.889Z,2.5
2023-04-12T00:15:00.390Z,3.2
2023-04-12T00:20:00.665Z,1.8
2023-04-12T00:25:00.468Z,1.8
2023-04-12T00:30:00.437Z,1.8
2023-04-12T00:35:00.421Z,0.0
2023-04-12T00:40:00.457Z,0.0
2023-04-12T00:45:00.440Z,0.0
2023-04-12T00:50:00.440Z,0.0
2023-04-12T00:55:00.362Z,0.0
2023-04-12T01:00:00.450Z,0.0
2023-04-12T01:05:00.371Z,0.0
2023-04-12T01:10:00.427Z,0.0
2023-04-12T01:15:00.366Z,0.0
2023-04-12T01:20:00.434Z,0.0
2023-04-12T01:25:00.394Z,0.0
2023-04-12T01:30:00.425Z,0.0
2023-04-12T01:35:00.405Z,0.0
2023-04-12T01:40:00.376Z,0.0
2023-04-12T01:45:00.411Z,0.0
2023-04-12T01:50:00.373Z,0.0
2023-04-12T01:55:00.453Z,2.2
2023-04-12T02:00:00.373Z,0.0
2023-04-12T02:05:00.367Z,0.0
2023-04-12T02:10:00.473Z,0.0
2023-04-12T02:15:00.406Z,0.0
2023-04-12T02:20:00.459Z,0.0
2023-04-12T02:25:00.375Z,0.0
2023-04-12T02:30:00.448Z,0.0
2023-04-12T02:35:00.389Z,0.0
2023-04-12T02:40:00.429Z,0.0
2023-04-12T02:45:00.363Z,0.0
2023-04-12T02:50:00.434Z,0.0
2023-04-12T02:55:00.438Z,0.0
2023-04-12T03:00:00.439Z,0.0
2023-04-12T03:05:00.361Z,0.0
2023-04-12T03:10:00.461Z,0.0
2023-04-12T03:15:00.430Z,0.0
2023-04-12T03:20:00.430Z,0.0
2023-04-12T03:25:00.363Z,0.0
2023-04-12T03:30:00.541Z,0.0
2023-04-12T03:35:00.373Z,0.0
2023-04-12T03:40:00.425Z,0.0
2023-04-12T03:45:00.468Z,0.0
2023-04-12T03:50:12.798Z,0.0
2023-04-12T03:55:00.371Z,0.0
2023-04-12T04:00:00.424Z,0.0
2023-04-12T04:05:00.532Z,0.0
2023-04-12T04:10:00.423Z,0.0
2023-04-12T04:15:00.361Z,0.0
2023-04-12T04:20:00.430Z,0.0
2023-04-12T04:25:00.361Z,0.0
2023-04-12T04:30:00.458Z,0.0
2023-04-12T04:35:00.435Z,0.0
2023-04-12T04:40:00.508Z,0.0
2023-04-12T04:45:01.435Z,0.0
2023-04-12T04:50:00.382Z,0.0
2023-04-12T04:55:00.412Z,0.0
2023-04-12T05:00:00.451Z,0.0
2023-04-12T05:05:00.606Z,0.0
2023-04-12T05:10:00.571Z,0.0
2023-04-12T05:15:12.430Z,0.0
2023-04-12T05:20:00.421Z,0.0
2023-04-12T05:25:00.449Z,2.5
2023-04-12T05:30:00.490Z,1.4
2023-04-12T05:35:00.416Z,2.5
2023-04-12T05:40:00.459Z,0.0
2023-04-12T05:45:00.475Z,0.0
2023-04-12T05:50:00.489Z,0.0
2023-04-12T05:55:00.435Z,2.5
2023-04-12T06:00:00.456Z,0.0
2023-04-12T06:05:01.134Z,0.0
2023-04-12T06:10:00.453Z,4.0
2023-04-12T06:15:00.655Z,1.8
2023-04-12T06:20:00.445Z,4.7
2023-04-12T06:25:00.435Z,8.6
2023-04-12T06:30:00.452Z,6.8
2023-04-12T06:35:00.410Z,4.3
2023-04-12T06:40:00.466Z,8.6
2023-04-12T06:45:00.429Z,4.0
2023-04-12T06:50:00.427Z,9.4
2023-04-12T06:55:00.510Z,6.5
2023-04-12T07:00:00.584Z,12.2
2023-04-12T07:05:00.401Z,4.0
2023-04-12T07:10:00.490Z,4.7
2023-04-12T07:15:00.442Z,12.2
2023-04-12T07:20:00.455Z,14.0
2023-04-12T07:25:01.196Z,7.6
2023-04-12T07:30:00.536Z,14.4
2023-04-12T07:35:00.436Z,16.6
2023-04-12T07:40:00.740Z,18.7
2023-04-12T07:45:00.523Z,20.9
2023-04-12T07:50:00.450Z,16.9
2023-04-12T07:55:00.428Z,13.0
2023-04-12T08:00:00.460Z,8.6
2023-04-12T08:05:00.514Z,16.9
2023-04-12T08:10:00.445Z,10.1
2023-04-12T08:15:00.438Z,15.5
2023-04-12T08:20:00.704Z,22.3
2023-04-12T08:25:00.424Z,13.7
2023-04-12T08:30:00.515Z,12.6
2023-04-12T08:35:00.453Z,15.8
2023-04-12T08:40:00.430Z,14.8
2023-04-12T08:45:00.430Z,7.6
2023-04-12T08:50:00.424Z,25.2
2023-04-12T08:55:00.431Z,15.8
2023-04-12T09:00:00.677Z,23.4
2023-04-12T09:05:00.882Z,16.9
2023-04-12T09:10:00.527Z,12.2
2023-04-12T09:15:00.634Z,19.4
2023-04-12T09:20:00.459Z,16.2
2023-04-12T09:25:00.549Z,14.8
2023-04-12T09:30:00.620Z,21.2
2023-04-12T09:35:00.505Z,15.5
2023-04-12T09:40:00.458Z,19.4
2023-04-12T09:45:00.421Z,22.0
2023-04-12T09:50:00.455Z,20.5
2023-04-12T09:55:00.510Z,20.9
2023-04-12T10:00:00.500Z,25.6
2023-04-12T10:05:01.183Z,9.7
2023-04-12T10:10:00.469Z,21.6
2023-04-12T10:15:00.470Z,20.9
2023-04-12T10:20:00.431Z,31.3
2023-04-12T10:25:00.461Z,19.8
2023-04-12T10:30:00.549Z,20.9
2023-04-12T10:35:00.534Z,17.3
2023-04-12T10:40:00.542Z,9.7
2023-04-12T10:45:01.610Z,20.2
2023-04-12T10:50:00.426Z,16.2
2023-04-12T10:55:00.435Z,25.2
2023-04-12T11:00:00.517Z,24.5
2023-04-12T11:05:00.580Z,18.4
2023-04-12T11:10:00.515Z,11.9
2023-04-12T11:15:00.513Z,14.0
2023-04-12T11:20:00.551Z,16.6
2023-04-12T11:25:00.929Z,16.9
2023-04-12T11:30:00.440Z,15.1
2023-04-12T11:35:00.410Z,10.1
2023-04-12T11:40:00.442Z,19.1
2023-04-12T11:45:16.929Z,21.6
2023-04-12T11:50:00.478Z,18.4
2023-04-12T11:55:00.443Z,15.8
2023-04-12T12:00:00.716Z,25.6
2023-04-12T12:05:01.223Z,23.4
2023-04-12T12:10:00.512Z,22.7
2023-04-12T12:15:00.462Z,20.5
2023-04-12T12:20:00.448Z,24.1
2023-04-12T12:25:00.684Z,20.2
2023-04-12T12:30:00.468Z,25.6
2023-04-12T12:35:00.407Z,31.7
2023-04-12T12:40:00.467Z,7.9
2023-04-12T12:45:00.411Z,14.4
2023-04-12T12:50:00.609Z,20.9
2023-04-12T12:55:00.433Z,22.0
2023-04-12T13:00:00.467Z,20.9
2023-04-12T13:05:00.751Z,12.6
2023-04-12T13:10:00.441Z,25.6
2023-04-12T13:15:23.472Z,15.5
2023-04-12T13:20:00.487Z,11.5
2023-04-12T13:25:00.422Z,20.9
2023-04-12T13:30:00.457Z,22.0
2023-04-12T13:35:00.574Z,25.6
2023-04-12T13:40:00.435Z,19.1
2023-04-12T13:45:00.601Z,22.0
2023-04-12T13:50:00.453Z,16.9
2023-04-12T13:55:00.447Z,17.3
2023-04-12T14:00:00.448Z,17.6
2023-04-12T14:05:01.129Z,35.3
2023-04-12T14:10:00.556Z,9.7
2023-04-12T14:15:00.442Z,30.6
2023-04-12T14:20:00.897Z,20.2
2023-04-12T14:25:00.498Z,26.6
2023-04-12T14:30:00.464Z,8.3
2023-04-12T14:35:00.431Z,15.5
2023-04-12T14:40:00.549Z,14.0
2023-04-12T14:45:00.496Z,7.6
2023-04-12T14:50:00.527Z,18.4
2023-04-12T14:55:00.422Z,24.8
2023-04-12T15:00:00.457Z,21.2
2023-04-12T15:05:00.983Z,15.5
2023-04-12T15:10:00.474Z,24.5
2023-04-12T15:15:00.445Z,18.0
2023-04-12T15:20:00.712Z,15.8
2023-04-12T15:25:00.466Z,12.2
2023-04-12T15:30:00.701Z,12.2
2023-04-12T15:35:04.967Z,14.8
2023-04-12T15:40:00.456Z,18.0
2023-04-12T15:45:00.498Z,14.4
2023-04-12T15:50:00.473Z,8.3
2023-04-12T15:55:00.418Z,17.6
2023-04-12T16:00:00.595Z,13.3
2023-04-12T16:05:01.125Z,20.2
2023-04-12T16:10:00.462Z,13.3
2023-04-12T16:15:00.460Z,16.9
2023-04-12T16:20:00.433Z,4.7
2023-04-12T16:25:00.462Z,15.5
2023-04-12T16:30:00.559Z,7.6
2023-04-12T16:35:00.559Z,4.3
2023-04-12T16:40:00.455Z,7.2
2023-04-12T16:45:00.419Z,8.6
2023-04-12T16:50:00.677Z,15.1
2023-04-12T16:55:00.414Z,6.1
2023-04-12T17:00:00.828Z,3.6
2023-04-12T17:05:02.525Z,15.5
2023-04-12T17:10:00.476Z,11.9
2023-04-12T17:15:00.451Z,13.0
2023-04-12T17:20:02.955Z,9.0
2023-04-12T17:25:00.504Z,18.0
2023-04-12T17:30:00.508Z,6.8
2023-04-12T17:35:00.447Z,6.5
2023-04-12T17:40:00.505Z,12.6
2023-04-12T17:45:00.466Z,4.3
2023-04-12T17:50:00.499Z,8.6
2023-04-12T17:55:00.411Z,6.1
2023-04-12T18:00:00.580Z,12.2
2023-04-12T18:05:00.398Z,11.5
2023-04-12T18:10:00.474Z,9.7
2023-04-12T18:15:00.384Z,14.8
2023-04-12T18:20:03.408Z,3.6
2023-04-12T18:25:00.410Z,9.7
2023-04-12T18:30:00.459Z,9.4
2023-04-12T18:35:00.425Z,2.5
2023-04-12T18:40:00.561Z,8.3
2023-04-12T18:45:00.443Z,9.4
2023-04-12T18:50:00.604Z,13.0
2023-04-12T18:55:00.431Z,9.7
2023-04-12T19:00:00.600Z,10.4
2023-04-12T19:05:00.381Z,13.0
2023-04-12T19:10:00.483Z,14.8
2023-04-12T19:15:00.425Z,7.6
2023-04-12T19:20:00.413Z,14.8
2023-04-12T19:25:00.408Z,21.6
2023-04-12T19:30:00.431Z,16.9
2023-04-12T19:35:00.406Z,19.8
2023-04-12T19:40:00.462Z,16.6
2023-04-12T19:45:00.453Z,19.1
2023-04-12T19:50:00.439Z,16.6
2023-04-12T19:55:02.305Z,14.8
2023-04-12T20:00:00.458Z,14.0
2023-04-12T20:05:00.445Z,14.8
2023-04-12T20:10:00.673Z,15.5
2023-04-12T20:15:00.373Z,10.4
2023-04-12T20:20:00.450Z,7.2
2023-04-12T20:25:00.355Z,15.1
2023-04-12T20:30:00.492Z,6.1
2023-04-12T20:35:00.435Z,14.8
2023-04-12T20:40:00.526Z,16.2
2023-04-12T20:45:00.385Z,13.3
2023-04-12T20:50:00.396Z,13.0
2023-04-12T20:55:00.385Z,14.0
2023-04-12T21:00:00.429Z,6.1
2023-04-12T21:05:00.368Z,6.5
2023-04-12T21:10:00.435Z,6.5
2023-04-12T21:15:00.356Z,7.9
2023-04-12T21:20:00.434Z,5.8
2023-04-12T21:25:00.421Z,7.2
2023-04-12T21:30:00.438Z,6.1
2023-04-12T21:35:00.382Z,9.0
2023-04-12T21:40:00.381Z,4.0
2023-04-12T21:45:00.402Z,5.8
2023-04-12T21:50:00.588Z,6.8
2023-04-12T21:55:00.517Z,3.6
2023-04-12T22:00:00.442Z,3.2
2023-04-12T22:05:00.415Z,3.2
2023-04-12T22:10:00.437Z,7.6
2023-04-12T22:15:00.431Z,11.5
2023-04-12T22:20:00.438Z,3.2
2023-04-12T22:25:00.409Z,9.4
2023-04-12T22:30:00.445Z,2.2
2023-04-12T22:35:09.508Z,4.0
2023-04-12T22:40:00.434Z,6.1
2023-04-12T22:45:00.436Z,7.2
2023-04-12T22:50:00.383Z,8.3
2023-04-12T22:55:00.565Z,10.4
2023-04-12T23:00:00.380Z,1.8
2023-04-12T23:05:00.682Z,7.9
2023-04-12T23:10:00.454Z,7.9
2023-04-12T23:15:00.353Z,2.5
2023-04-12T23:20:00.467Z,6.1
2023-04-12T23:25:00.451Z,2.5
2023-04-12T23:30:00.533Z,5.8
2023-04-12T23:35:00.408Z,3.2
2023-04-12T23:40:00.422Z,2.5
2023-04-12T23:45:00.507Z,3.2
2023-04-12T23:50:00.403Z,9.7
2023-04-12T23:55:00.408Z,3.6
